Port Saint Joe, Florida
Current Conditions -  °F | °C
As of 8:53 PM on Wednesday 22 Oct 2014 (Local Time) from KAAF Reporting Station
Clear Clear  
Wind Chill: 64°   Ceiling: Unl
Heat Index: 64°   Visibility: 10mi
Dew Point: 51°   Wind: 5mph
Humidity: 63%   Direction: 20°NNE
Pressure: 30.04"   Gusts: NA
Location:  29.81°N, 85.3°W
Report Text: KAAF 230153Z AUTO 02004KT 10SM CLR 18/11 A3004 RMK AO2 SLP170 T01780106 TSNO
Loading
Personal Weather Stations






























Interactive Weather Map
Tropical Storm Tracking
New forecast layout! Learn more

10-Day Weather Forecast

Advertisements
Track Severe Weather on mobile